Weather at Long Seridan Airport

Public forecast

Using degrees Celsius for public forecast. Weather courtesy of forecast.io.

Closest aviation weather report (METAR) to Long Seridan Airport

Closest report is Brunei International Airport, 59.1 nm (109.5 km) N. Retrieved 2022/01/16 10:30 UTC (28 seconds ago):

WBSB 161030Z 36005KT 9999 FEW015 FEW016CB BKN280 28/25 Q1010 NOSIG

Closest aviation forecast (TAF) to Long Seridan Airport

Closest forecast is Brunei International Airport, 59.1 nm (109.5 km) N. Retrieved 2022/01/16 06:12 UTC (4 hours ago):

TAF WBSB 160500Z 1606/1712 03008KT 9999 FEW016 FEW017CB BECMG 1612/1614 FEW015 FEW016CB PROB30 TEMPO 1614/1620 8000 -TSRA